sensor_id;sensor_type;location;lat;lon;timestamp;temperature;humidity
981;DHT22;479;53.514;9.994;2022-10-16T00:01:41;14.60;99.90
981;DHT22;479;53.514;9.994;2022-10-16T00:04:15;14.60;99.90
981;DHT22;479;53.514;9.994;2022-10-16T00:06:50;14.60;99.90
981;DHT22;479;53.514;9.994;2022-10-16T00:09:38;14.60;99.90
981;DHT22;479;53.514;9.994;2022-10-16T00:12:05;14.70;99.90
981;DHT22;479;53.514;9.994;2022-10-16T00:14:39;14.70;99.90
981;DHT22;479;53.514;9.994;2022-10-16T00:17:10;14.70;99.90
981;DHT22;479;53.514;9.994;2022-10-16T00:19:37;14.70;99.90
981;DHT22;479;53.514;9.994;2022-10-16T00:22:25;14.70;99.90
981;DHT22;479;53.514;9.994;2022-10-16T00:25:00;14.70;99.90
981;DHT22;479;53.514;9.994;2022-10-16T00:27:28;14.70;99.90
981;DHT22;479;53.514;9.994;2022-10-16T00:30:08;14.60;99.90
981;DHT22;479;53.514;9.994;2022-10-16T00:32:47;14.70;99.90
981;DHT22;479;53.514;9.994;2022-10-16T00:35:20;14.70;99.90
981;DHT22;479;53.514;9.994;2022-10-16T00:37:54;14.70;99.90
981;DHT22;479;53.514;9.994;2022-10-16T00:40:23;14.70;99.90
981;DHT22;479;53.514;9.994;2022-10-16T00:43:13;14.80;99.90
981;DHT22;479;53.514;9.994;2022-10-16T00:45:46;14.80;99.90
981;DHT22;479;53.514;9.994;2022-10-16T00:48:14;14.80;99.90
981;DHT22;479;53.514;9.994;2022-10-16T00:51:34;14.80;99.90
981;DHT22;479;53.514;9.994;2022-10-16T00:54:25;14.80;99.90
981;DHT22;479;53.514;9.994;2022-10-16T01:00:15;14.70;99.90
981;DHT22;479;53.514;9.994;2022-10-16T01:02:52;14.70;99.90
981;DHT22;479;53.514;9.994;2022-10-16T01:06:09;14.60;99.90
981;DHT22;479;53.514;9.994;2022-10-16T01:09:21;14.60;99.90
981;DHT22;479;53.514;9.994;2022-10-16T01:30:12;14.20;99.90
981;DHT22;479;53.514;9.994;2022-10-16T01:32:49;14.10;99.90
981;DHT22;479;53.514;9.994;2022-10-16T01:35:50;14.20;99.90
981;DHT22;479;53.514;9.994;2022-10-16T01:38:37;14.20;99.90
981;DHT22;479;53.514;9.994;2022-10-16T01:41:09;14.20;99.90
981;DHT22;479;53.514;9.994;2022-10-16T01:43:40;14.10;99.90
981;DHT22;479;53.514;9.994;2022-10-16T01:46:17;14.20;99.90
981;DHT22;479;53.514;9.994;2022-10-16T01:48:52;14.10;99.90
981;DHT22;479;53.514;9.994;2022-10-16T01:51:27;14.00;99.90
981;DHT22;479;53.514;9.994;2022-10-16T01:53:58;14.00;99.90
981;DHT22;479;53.514;9.994;2022-10-16T01:56:30;13.90;99.90
981;DHT22;479;53.514;9.994;2022-10-16T01:59:03;13.90;99.90
981;DHT22;479;53.514;9.994;2022-10-16T02:01:36;13.90;99.90
981;DHT22;479;53.514;9.994;2022-10-16T02:04:13;13.80;99.90
981;DHT22;479;53.514;9.994;2022-10-16T02:06:44;13.80;99.90
981;DHT22;479;53.514;9.994;2022-10-16T02:09:12;13.80;99.90
981;DHT22;479;53.514;9.994;2022-10-16T02:11:45;13.90;99.90
981;DHT22;479;53.514;9.994;2022-10-16T02:14:29;13.90;99.90
981;DHT22;479;53.514;9.994;2022-10-16T02:17:26;13.90;99.90
981;DHT22;479;53.514;9.994;2022-10-16T02:20:00;13.90;99.90
981;DHT22;479;53.514;9.994;2022-10-16T02:22:45;13.90;99.90
981;DHT22;479;53.514;9.994;2022-10-16T02:25:24;13.80;99.90
981;DHT22;479;53.514;9.994;2022-10-16T02:28:03;13.70;99.90
981;DHT22;479;53.514;9.994;2022-10-16T02:30:58;13.70;99.90
981;DHT22;479;53.514;9.994;2022-10-16T02:33:28;13.60;99.90
981;DHT22;479;53.514;9.994;2022-10-16T02:36:02;13.60;99.90
981;DHT22;479;53.514;9.994;2022-10-16T02:41:23;13.60;99.90
981;DHT22;479;53.514;9.994;2022-10-16T02:43:51;13.60;99.90
981;DHT22;479;53.514;9.994;2022-10-16T02:59:50;13.40;99.90
981;DHT22;479;53.514;9.994;2022-10-16T03:15:26;13.20;99.90
981;DHT22;479;53.514;9.994;2022-10-16T03:26:32;13.10;99.90
981;DHT22;479;53.514;9.994;2022-10-16T03:29:11;13.10;99.90
981;DHT22;479;53.514;9.994;2022-10-16T03:31:46;13.00;99.90
981;DHT22;479;53.514;9.994;2022-10-16T03:34:17;13.00;99.90
981;DHT22;479;53.514;9.994;2022-10-16T03:40:11;12.90;99.90
981;DHT22;479;53.514;9.994;2022-10-16T04:04:53;13.10;99.90
981;DHT22;479;53.514;9.994;2022-10-16T04:08:12;13.10;99.90
981;DHT22;479;53.514;9.994;2022-10-16T04:10:42;13.10;99.90
981;DHT22;479;53.514;9.994;2022-10-16T04:14:24;13.10;99.90
981;DHT22;479;53.514;9.994;2022-10-16T04:16:55;13.10;99.90
981;DHT22;479;53.514;9.994;2022-10-16T04:19:41;13.10;99.90
981;DHT22;479;53.514;9.994;2022-10-16T04:27:01;13.10;99.90
981;DHT22;479;53.514;9.994;2022-10-16T04:30:29;13.10;99.90
981;DHT22;479;53.514;9.994;2022-10-16T04:33:20;13.10;99.90
981;DHT22;479;53.514;9.994;2022-10-16T04:40:21;13.00;99.90
981;DHT22;479;53.514;9.994;2022-10-16T04:46:33;13.10;99.90
981;DHT22;479;53.514;9.994;2022-10-16T04:49:10;13.00;99.90
981;DHT22;479;53.514;9.994;2022-10-16T04:51:38;12.90;99.90
981;DHT22;479;53.514;9.994;2022-10-16T04:54:51;13.00;99.90
981;DHT22;479;53.514;9.994;2022-10-16T04:57:43;12.90;99.90
981;DHT22;479;53.514;9.994;2022-10-16T05:08:30;12.90;99.90
981;DHT22;479;53.514;9.994;2022-10-16T05:11:29;13.00;99.90
981;DHT22;479;53.514;9.994;2022-10-16T05:19:26;13.00;99.90
981;DHT22;479;53.514;9.994;2022-10-16T05:31:12;13.00;99.90
981;DHT22;479;53.514;9.994;2022-10-16T05:37:08;13.00;99.90
981;DHT22;479;53.514;9.994;2022-10-16T05:39:59;13.00;99.90
981;DHT22;479;53.514;9.994;2022-10-16T05:42:27;13.00;99.90
981;DHT22;479;53.514;9.994;2022-10-16T05:45:14;13.00;99.90
981;DHT22;479;53.514;9.994;2022-10-16T05:47:44;13.00;99.90
981;DHT22;479;53.514;9.994;2022-10-16T05:50:17;13.00;99.90
981;DHT22;479;53.514;9.994;2022-10-16T05:52:46;13.00;99.90
981;DHT22;479;53.514;9.994;2022-10-16T05:55:13;13.00;99.90
981;DHT22;479;53.514;9.994;2022-10-16T05:57:45;13.00;99.90
981;DHT22;479;53.514;9.994;2022-10-16T06:00:13;13.00;99.90
981;DHT22;479;53.514;9.994;2022-10-16T06:02:53;13.10;99.90
981;DHT22;479;53.514;9.994;2022-10-16T06:05:20;13.10;99.90
981;DHT22;479;53.514;9.994;2022-10-16T06:07:48;13.10;99.90
981;DHT22;479;53.514;9.994;2022-10-16T06:10:16;13.20;99.90
981;DHT22;479;53.514;9.994;2022-10-16T06:12:42;13.20;99.90
981;DHT22;479;53.514;9.994;2022-10-16T06:15:09;13.20;99.90
981;DHT22;479;53.514;9.994;2022-10-16T06:17:36;13.20;99.90
981;DHT22;479;53.514;9.994;2022-10-16T06:20:04;13.20;99.90
981;DHT22;479;53.514;9.994;2022-10-16T06:22:31;13.10;99.90
981;DHT22;479;53.514;9.994;2022-10-16T06:24:59;13.00;99.90
981;DHT22;479;53.514;9.994;2022-10-16T06:27:26;13.00;99.90
981;DHT22;479;53.514;9.994;2022-10-16T06:29:53;12.90;99.90
981;DHT22;479;53.514;9.994;2022-10-16T06:32:20;12.90;99.90
981;DHT22;479;53.514;9.994;2022-10-16T06:34:47;12.90;99.90
981;DHT22;479;53.514;9.994;2022-10-16T06:37:14;12.90;99.90
981;DHT22;479;53.514;9.994;2022-10-16T06:39:41;12.90;99.90
981;DHT22;479;53.514;9.994;2022-10-16T06:42:09;12.90;99.90
981;DHT22;479;53.514;9.994;2022-10-16T06:44:36;13.00;99.90
981;DHT22;479;53.514;9.994;2022-10-16T06:47:03;13.00;99.90
981;DHT22;479;53.514;9.994;2022-10-16T06:49:30;13.00;99.90
981;DHT22;479;53.514;9.994;2022-10-16T06:51:56;13.10;99.90
981;DHT22;479;53.514;9.994;2022-10-16T06:54:23;13.10;99.90
981;DHT22;479;53.514;9.994;2022-10-16T06:56:51;13.10;99.90
981;DHT22;479;53.514;9.994;2022-10-16T06:59:21;13.20;99.90
981;DHT22;479;53.514;9.994;2022-10-16T07:01:48;13.30;99.90
981;DHT22;479;53.514;9.994;2022-10-16T07:04:15;13.30;99.90
981;DHT22;479;53.514;9.994;2022-10-16T07:06:42;13.40;99.90
981;DHT22;479;53.514;9.994;2022-10-16T07:09:10;13.50;99.90
981;DHT22;479;53.514;9.994;2022-10-16T07:11:37;13.60;99.90
981;DHT22;479;53.514;9.994;2022-10-16T07:14:08;13.80;99.90
981;DHT22;479;53.514;9.994;2022-10-16T07:16:40;14.30;99.90
981;DHT22;479;53.514;9.994;2022-10-16T07:19:08;15.10;99.90
981;DHT22;479;53.514;9.994;2022-10-16T07:21:37;15.70;99.90
981;DHT22;479;53.514;9.994;2022-10-16T07:24:06;15.90;99.90
981;DHT22;479;53.514;9.994;2022-10-16T07:26:36;15.90;99.90
981;DHT22;479;53.514;9.994;2022-10-16T07:29:06;16.10;99.90
981;DHT22;479;53.514;9.994;2022-10-16T07:31:33;15.70;99.90
981;DHT22;479;53.514;9.994;2022-10-16T07:34:01;15.40;99.90
981;DHT22;479;53.514;9.994;2022-10-16T07:36:28;15.20;99.90
981;DHT22;479;53.514;9.994;2022-10-16T07:38:55;15.10;99.90
981;DHT22;479;53.514;9.994;2022-10-16T07:41:22;15.10;99.90
981;DHT22;479;53.514;9.994;2022-10-16T07:43:51;15.10;99.90
981;DHT22;479;53.514;9.994;2022-10-16T07:46:19;15.10;99.90
981;DHT22;479;53.514;9.994;2022-10-16T07:48:46;15.20;99.90
981;DHT22;479;53.514;9.994;2022-10-16T07:51:16;15.30;99.90
981;DHT22;479;53.514;9.994;2022-10-16T07:53:43;15.70;99.90
981;DHT22;479;53.514;9.994;2022-10-16T07:56:10;16.30;99.90
981;DHT22;479;53.514;9.994;2022-10-16T07:58:37;16.30;99.90
981;DHT22;479;53.514;9.994;2022-10-16T08:01:06;16.20;99.90
981;DHT22;479;53.514;9.994;2022-10-16T08:03:33;16.20;99.90
981;DHT22;479;53.514;9.994;2022-10-16T08:06:01;16.10;99.90
981;DHT22;479;53.514;9.994;2022-10-16T08:08:29;16.00;99.90
981;DHT22;479;53.514;9.994;2022-10-16T08:10:56;16.00;99.90
981;DHT22;479;53.514;9.994;2022-10-16T08:13:23;16.10;99.90
981;DHT22;479;53.514;9.994;2022-10-16T08:15:50;16.10;99.90
981;DHT22;479;53.514;9.994;2022-10-16T08:18:17;16.10;99.90
981;DHT22;479;53.514;9.994;2022-10-16T08:20:44;16.00;99.90
981;DHT22;479;53.514;9.994;2022-10-16T08:23:11;16.00;99.90
981;DHT22;479;53.514;9.994;2022-10-16T08:25:40;15.90;99.90
981;DHT22;479;53.514;9.994;2022-10-16T08:28:09;15.90;99.90
981;DHT22;479;53.514;9.994;2022-10-16T08:30:36;15.90;99.90
981;DHT22;479;53.514;9.994;2022-10-16T08:33:04;16.00;99.90
981;DHT22;479;53.514;9.994;2022-10-16T08:35:31;16.00;99.90
981;DHT22;479;53.514;9.994;2022-10-16T08:37:58;16.50;99.90
981;DHT22;479;53.514;9.994;2022-10-16T08:40:26;16.90;99.90
981;DHT22;479;53.514;9.994;2022-10-16T08:43:19;17.00;99.90
981;DHT22;479;53.514;9.994;2022-10-16T08:46:15;16.90;99.90
981;DHT22;479;53.514;9.994;2022-10-16T08:48:47;17.00;99.90
981;DHT22;479;53.514;9.994;2022-10-16T08:51:20;17.20;99.90
981;DHT22;479;53.514;9.994;2022-10-16T08:53:52;17.00;99.90
981;DHT22;479;53.514;9.994;2022-10-16T08:56:20;17.10;99.90
981;DHT22;479;53.514;9.994;2022-10-16T08:58:49;17.20;99.90
981;DHT22;479;53.514;9.994;2022-10-16T09:01:19;17.50;99.90
981;DHT22;479;53.514;9.994;2022-10-16T09:04:00;17.90;99.90
981;DHT22;479;53.514;9.994;2022-10-16T09:06:40;18.20;99.90
981;DHT22;479;53.514;9.994;2022-10-16T09:12:05;18.20;99.90
981;DHT22;479;53.514;9.994;2022-10-16T09:14:52;18.40;99.90
981;DHT22;479;53.514;9.994;2022-10-16T09:17:32;18.60;99.90
981;DHT22;479;53.514;9.994;2022-10-16T09:20:13;18.40;99.90
981;DHT22;479;53.514;9.994;2022-10-16T09:22:44;18.80;99.90
981;DHT22;479;53.514;9.994;2022-10-16T09:25:13;19.50;99.90
981;DHT22;479;53.514;9.994;2022-10-16T09:27:41;19.80;99.90
981;DHT22;479;53.514;9.994;2022-10-16T09:30:16;19.90;99.90
981;DHT22;479;53.514;9.994;2022-10-16T09:32:44;19.90;99.90
981;DHT22;479;53.514;9.994;2022-10-16T09:35:14;19.90;99.90
981;DHT22;479;53.514;9.994;2022-10-16T09:37:42;19.90;99.90
981;DHT22;479;53.514;9.994;2022-10-16T09:40:24;19.80;99.90
981;DHT22;479;53.514;9.994;2022-10-16T09:42:55;19.90;99.90
981;DHT22;479;53.514;9.994;2022-10-16T09:45:25;19.90;99.90
981;DHT22;479;53.514;9.994;2022-10-16T09:47:53;19.60;99.90
981;DHT22;479;53.514;9.994;2022-10-16T09:50:22;19.50;99.90
981;DHT22;479;53.514;9.994;2022-10-16T09:52:50;19.40;99.90
981;DHT22;479;53.514;9.994;2022-10-16T09:55:18;19.50;99.90
981;DHT22;479;53.514;9.994;2022-10-16T09:57:51;19.70;99.90
981;DHT22;479;53.514;9.994;2022-10-16T10:00:19;19.30;99.90
981;DHT22;479;53.514;9.994;2022-10-16T10:02:48;19.20;99.90
981;DHT22;479;53.514;9.994;2022-10-16T10:05:21;19.50;99.90
981;DHT22;479;53.514;9.994;2022-10-16T10:07:54;19.90;99.90
981;DHT22;479;53.514;9.994;2022-10-16T10:10:24;19.80;99.90
981;DHT22;479;53.514;9.994;2022-10-16T10:12:51;19.90;99.90
981;DHT22;479;53.514;9.994;2022-10-16T10:15:18;20.20;99.90
981;DHT22;479;53.514;9.994;2022-10-16T10:17:52;20.30;99.90
981;DHT22;479;53.514;9.994;2022-10-16T10:20:25;20.50;99.90
981;DHT22;479;53.514;9.994;2022-10-16T10:22:53;20.40;99.90
981;DHT22;479;53.514;9.994;2022-10-16T10:25:31;20.40;99.90
981;DHT22;479;53.514;9.994;2022-10-16T10:28:24;20.10;99.90
981;DHT22;479;53.514;9.994;2022-10-16T10:30:59;20.00;99.90
981;DHT22;479;53.514;9.994;2022-10-16T10:33:34;20.50;99.90
981;DHT22;479;53.514;9.994;2022-10-16T10:36:12;20.70;99.90
981;DHT22;479;53.514;9.994;2022-10-16T10:38:47;21.00;99.90
981;DHT22;479;53.514;9.994;2022-10-16T10:41:35;20.60;99.90
981;DHT22;479;53.514;9.994;2022-10-16T10:44:12;20.70;99.90
981;DHT22;479;53.514;9.994;2022-10-16T10:46:43;20.50;99.90
981;DHT22;479;53.514;9.994;2022-10-16T10:49:28;21.10;99.90
981;DHT22;479;53.514;9.994;2022-10-16T10:52:07;20.90;99.90
981;DHT22;479;53.514;9.994;2022-10-16T10:54:41;21.10;99.90
981;DHT22;479;53.514;9.994;2022-10-16T10:57:22;20.80;99.90
981;DHT22;479;53.514;9.994;2022-10-16T11:00:05;20.40;99.90
981;DHT22;479;53.514;9.994;2022-10-16T11:02:38;19.80;99.90
981;DHT22;479;53.514;9.994;2022-10-16T11:05:31;19.80;99.90
981;DHT22;479;53.514;9.994;2022-10-16T11:08:09;20.40;99.90
981;DHT22;479;53.514;9.994;2022-10-16T11:10:44;20.50;99.90
981;DHT22;479;53.514;9.994;2022-10-16T11:13:20;20.50;99.90
981;DHT22;479;53.514;9.994;2022-10-16T11:15:53;20.20;99.90
981;DHT22;479;53.514;9.994;2022-10-16T11:18:26;20.60;99.90
981;DHT22;479;53.514;9.994;2022-10-16T11:20:59;20.70;99.90
981;DHT22;479;53.514;9.994;2022-10-16T11:23:30;20.60;99.90
981;DHT22;479;53.514;9.994;2022-10-16T11:26:02;20.10;99.90
981;DHT22;479;53.514;9.994;2022-10-16T11:28:35;19.80;99.90
981;DHT22;479;53.514;9.994;2022-10-16T11:31:08;19.40;99.90
981;DHT22;479;53.514;9.994;2022-10-16T11:33:40;19.10;99.90
981;DHT22;479;53.514;9.994;2022-10-16T11:36:14;19.10;99.90
981;DHT22;479;53.514;9.994;2022-10-16T11:38:47;19.30;99.90
981;DHT22;479;53.514;9.994;2022-10-16T11:41:24;19.10;99.90
981;DHT22;479;53.514;9.994;2022-10-16T11:44:03;19.00;99.90
981;DHT22;479;53.514;9.994;2022-10-16T11:46:34;18.90;99.90
981;DHT22;479;53.514;9.994;2022-10-16T11:49:08;18.60;99.90
981;DHT22;479;53.514;9.994;2022-10-16T11:51:40;18.60;99.90
981;DHT22;479;53.514;9.994;2022-10-16T11:54:16;18.90;99.90
981;DHT22;479;53.514;9.994;2022-10-16T11:56:49;19.10;99.90
981;DHT22;479;53.514;9.994;2022-10-16T11:59:23;19.00;99.90
981;DHT22;479;53.514;9.994;2022-10-16T12:01:57;18.80;99.90
981;DHT22;479;53.514;9.994;2022-10-16T12:04:31;19.00;99.90
981;DHT22;479;53.514;9.994;2022-10-16T12:07:05;19.10;99.90
981;DHT22;479;53.514;9.994;2022-10-16T12:09:37;19.10;99.90
981;DHT22;479;53.514;9.994;2022-10-16T12:12:05;19.00;99.90
981;DHT22;479;53.514;9.994;2022-10-16T12:15:00;19.00;99.90
981;DHT22;479;53.514;9.994;2022-10-16T12:17:35;18.70;99.90
981;DHT22;479;53.514;9.994;2022-10-16T12:20:20;18.60;99.90
981;DHT22;479;53.514;9.994;2022-10-16T12:22:52;18.60;99.90
981;DHT22;479;53.514;9.994;2022-10-16T12:25:23;18.50;99.90
981;DHT22;479;53.514;9.994;2022-10-16T12:28:01;18.40;99.90
981;DHT22;479;53.514;9.994;2022-10-16T12:30:34;18.20;99.90
981;DHT22;479;53.514;9.994;2022-10-16T12:33:03;18.10;99.90
981;DHT22;479;53.514;9.994;2022-10-16T12:35:32;18.00;99.90
981;DHT22;479;53.514;9.994;2022-10-16T12:38:15;17.90;99.90
981;DHT22;479;53.514;9.994;2022-10-16T12:40:43;18.10;99.90
981;DHT22;479;53.514;9.994;2022-10-16T12:43:27;18.10;99.90
981;DHT22;479;53.514;9.994;2022-10-16T12:46:02;18.30;99.90
981;DHT22;479;53.514;9.994;2022-10-16T12:48:30;18.50;99.90
981;DHT22;479;53.514;9.994;2022-10-16T12:50:57;18.60;99.90
981;DHT22;479;53.514;9.994;2022-10-16T12:53:37;18.70;99.90
981;DHT22;479;53.514;9.994;2022-10-16T12:56:11;18.70;99.90
981;DHT22;479;53.514;9.994;2022-10-16T12:58:57;18.60;99.90
981;DHT22;479;53.514;9.994;2022-10-16T13:01:37;18.60;99.90
981;DHT22;479;53.514;9.994;2022-10-16T13:04:30;18.70;99.90
981;DHT22;479;53.514;9.994;2022-10-16T13:07:05;18.70;99.90
981;DHT22;479;53.514;9.994;2022-10-16T13:09:46;18.70;99.90
981;DHT22;479;53.514;9.994;2022-10-16T13:12:27;18.70;99.90
981;DHT22;479;53.514;9.994;2022-10-16T13:15:11;18.80;99.90
981;DHT22;479;53.514;9.994;2022-10-16T13:17:50;18.60;99.90
981;DHT22;479;53.514;9.994;2022-10-16T13:20:23;18.60;99.90
981;DHT22;479;53.514;9.994;2022-10-16T13:23:01;18.50;99.90
981;DHT22;479;53.514;9.994;2022-10-16T13:25:40;18.50;99.90
981;DHT22;479;53.514;9.994;2022-10-16T13:28:12;18.50;99.90
981;DHT22;479;53.514;9.994;2022-10-16T13:30:41;18.50;99.90
981;DHT22;479;53.514;9.994;2022-10-16T13:33:15;18.50;99.90
981;DHT22;479;53.514;9.994;2022-10-16T13:35:48;18.60;99.90
981;DHT22;479;53.514;9.994;2022-10-16T13:38:18;18.80;99.90
981;DHT22;479;53.514;9.994;2022-10-16T13:40:55;18.90;99.90
981;DHT22;479;53.514;9.994;2022-10-16T13:43:26;18.90;99.90
981;DHT22;479;53.514;9.994;2022-10-16T13:45:59;18.90;99.90
981;DHT22;479;53.514;9.994;2022-10-16T13:48:28;18.80;99.90
981;DHT22;479;53.514;9.994;2022-10-16T13:51:04;18.80;99.90
981;DHT22;479;53.514;9.994;2022-10-16T13:53:32;18.70;99.90
981;DHT22;479;53.514;9.994;2022-10-16T13:56:02;18.60;99.90
981;DHT22;479;53.514;9.994;2022-10-16T13:58:30;18.60;99.90
981;DHT22;479;53.514;9.994;2022-10-16T14:00:59;18.60;99.90
981;DHT22;479;53.514;9.994;2022-10-16T14:03:27;18.50;99.90
981;DHT22;479;53.514;9.994;2022-10-16T14:05:57;18.40;99.90
981;DHT22;479;53.514;9.994;2022-10-16T14:08:27;18.40;99.90
981;DHT22;479;53.514;9.994;2022-10-16T14:10:58;18.40;99.90
981;DHT22;479;53.514;9.994;2022-10-16T14:13:31;18.30;99.90
981;DHT22;479;53.514;9.994;2022-10-16T14:16:02;18.30;99.90
981;DHT22;479;53.514;9.994;2022-10-16T14:18:32;18.40;99.90
981;DHT22;479;53.514;9.994;2022-10-16T14:21:04;18.50;99.90
981;DHT22;479;53.514;9.994;2022-10-16T14:23:35;18.50;99.90
981;DHT22;479;53.514;9.994;2022-10-16T14:26:12;18.50;99.90
981;DHT22;479;53.514;9.994;2022-10-16T14:28:42;18.50;99.90
981;DHT22;479;53.514;9.994;2022-10-16T14:31:27;18.50;99.90
981;DHT22;479;53.514;9.994;2022-10-16T14:33:55;18.50;99.90
981;DHT22;479;53.514;9.994;2022-10-16T14:36:23;18.50;99.90
981;DHT22;479;53.514;9.994;2022-10-16T14:38:58;18.40;99.90
981;DHT22;479;53.514;9.994;2022-10-16T14:41:26;18.20;99.90
981;DHT22;479;53.514;9.994;2022-10-16T14:43:56;18.20;99.90
981;DHT22;479;53.514;9.994;2022-10-16T14:46:31;18.10;99.90
981;DHT22;479;53.514;9.994;2022-10-16T14:49:03;17.90;99.90
981;DHT22;479;53.514;9.994;2022-10-16T14:51:31;17.90;99.90
981;DHT22;479;53.514;9.994;2022-10-16T14:53:58;17.80;99.90
981;DHT22;479;53.514;9.994;2022-10-16T14:56:28;17.80;99.90
981;DHT22;479;53.514;9.994;2022-10-16T14:58:57;17.80;99.90
981;DHT22;479;53.514;9.994;2022-10-16T15:01:24;17.80;99.90
981;DHT22;479;53.514;9.994;2022-10-16T15:04:13;17.80;99.90
981;DHT22;479;53.514;9.994;2022-10-16T15:06:43;17.90;99.90
981;DHT22;479;53.514;9.994;2022-10-16T15:09:10;17.80;99.90
981;DHT22;479;53.514;9.994;2022-10-16T15:11:37;17.70;99.90
981;DHT22;479;53.514;9.994;2022-10-16T15:14:08;17.70;99.90
981;DHT22;479;53.514;9.994;2022-10-16T15:16:35;17.60;99.90
981;DHT22;479;53.514;9.994;2022-10-16T15:19:02;17.60;99.90
981;DHT22;479;53.514;9.994;2022-10-16T15:21:31;17.60;99.90
981;DHT22;479;53.514;9.994;2022-10-16T15:23:59;17.50;99.90
981;DHT22;479;53.514;9.994;2022-10-16T15:26:28;17.40;99.90
981;DHT22;479;53.514;9.994;2022-10-16T15:28:56;17.40;99.90
981;DHT22;479;53.514;9.994;2022-10-16T15:31:24;17.40;99.90
981;DHT22;479;53.514;9.994;2022-10-16T15:33:57;17.30;99.90
981;DHT22;479;53.514;9.994;2022-10-16T15:36:31;17.30;99.90
981;DHT22;479;53.514;9.994;2022-10-16T15:39:02;17.40;99.90
981;DHT22;479;53.514;9.994;2022-10-16T15:41:30;17.30;99.90
981;DHT22;479;53.514;9.994;2022-10-16T15:43:57;17.30;99.90
981;DHT22;479;53.514;9.994;2022-10-16T15:46:25;17.20;99.90
981;DHT22;479;53.514;9.994;2022-10-16T15:48:56;17.10;99.90
981;DHT22;479;53.514;9.994;2022-10-16T15:51:24;17.10;99.90
981;DHT22;479;53.514;9.994;2022-10-16T15:53:53;17.00;99.90
981;DHT22;479;53.514;9.994;2022-10-16T15:56:20;16.90;99.90
981;DHT22;479;53.514;9.994;2022-10-16T15:58:47;16.90;99.90
981;DHT22;479;53.514;9.994;2022-10-16T16:01:14;16.80;99.90
981;DHT22;479;53.514;9.994;2022-10-16T16:03:43;16.70;99.90
981;DHT22;479;53.514;9.994;2022-10-16T16:06:12;16.60;99.90
981;DHT22;479;53.514;9.994;2022-10-16T16:08:40;16.60;99.90
981;DHT22;479;53.514;9.994;2022-10-16T16:11:08;16.50;99.90
981;DHT22;479;53.514;9.994;2022-10-16T16:13:35;16.50;99.90
981;DHT22;479;53.514;9.994;2022-10-16T16:16:06;16.50;99.90
981;DHT22;479;53.514;9.994;2022-10-16T16:18:33;16.40;99.90
981;DHT22;479;53.514;9.994;2022-10-16T16:21:02;16.40;99.90
981;DHT22;479;53.514;9.994;2022-10-16T16:23:42;16.30;99.90
981;DHT22;479;53.514;9.994;2022-10-16T16:26:13;16.30;99.90
981;DHT22;479;53.514;9.994;2022-10-16T16:28:42;16.20;99.90
981;DHT22;479;53.514;9.994;2022-10-16T16:31:10;16.20;99.90
981;DHT22;479;53.514;9.994;2022-10-16T16:33:37;16.10;99.90
981;DHT22;479;53.514;9.994;2022-10-16T16:36:06;16.00;99.90
981;DHT22;479;53.514;9.994;2022-10-16T16:38:33;16.00;99.90
981;DHT22;479;53.514;9.994;2022-10-16T16:41:10;15.90;99.90
981;DHT22;479;53.514;9.994;2022-10-16T16:43:37;15.80;99.90
981;DHT22;479;53.514;9.994;2022-10-16T16:46:04;15.70;99.90
981;DHT22;479;53.514;9.994;2022-10-16T16:48:32;15.70;99.90
981;DHT22;479;53.514;9.994;2022-10-16T16:51:03;15.70;99.90
981;DHT22;479;53.514;9.994;2022-10-16T16:53:33;15.60;99.90
981;DHT22;479;53.514;9.994;2022-10-16T16:56:01;15.60;99.90
981;DHT22;479;53.514;9.994;2022-10-16T16:58:28;15.50;99.90
981;DHT22;479;53.514;9.994;2022-10-16T17:00:55;15.40;99.90
981;DHT22;479;53.514;9.994;2022-10-16T17:03:26;15.30;99.90
981;DHT22;479;53.514;9.994;2022-10-16T17:05:56;15.20;99.90
981;DHT22;479;53.514;9.994;2022-10-16T17:08:23;15.20;99.90
981;DHT22;479;53.514;9.994;2022-10-16T17:10:52;15.10;99.90
981;DHT22;479;53.514;9.994;2022-10-16T17:13:20;15.10;99.90
981;DHT22;479;53.514;9.994;2022-10-16T17:15:49;15.00;99.90
981;DHT22;479;53.514;9.994;2022-10-16T17:18:23;15.00;99.90
981;DHT22;479;53.514;9.994;2022-10-16T17:20:54;14.90;99.90
981;DHT22;479;53.514;9.994;2022-10-16T17:23:21;14.90;99.90
981;DHT22;479;53.514;9.994;2022-10-16T17:25:48;14.90;99.90
981;DHT22;479;53.514;9.994;2022-10-16T17:28:17;14.80;99.90
981;DHT22;479;53.514;9.994;2022-10-16T17:30:43;14.70;99.90
981;DHT22;479;53.514;9.994;2022-10-16T17:33:12;14.70;99.90
981;DHT22;479;53.514;9.994;2022-10-16T17:35:41;14.60;99.90
981;DHT22;479;53.514;9.994;2022-10-16T17:38:09;14.60;99.90
981;DHT22;479;53.514;9.994;2022-10-16T17:40:37;14.50;99.90
981;DHT22;479;53.514;9.994;2022-10-16T17:43:05;14.50;99.90
981;DHT22;479;53.514;9.994;2022-10-16T17:45:37;14.50;99.90
981;DHT22;479;53.514;9.994;2022-10-16T17:48:05;14.40;99.90
981;DHT22;479;53.514;9.994;2022-10-16T17:50:32;14.40;99.90
981;DHT22;479;53.514;9.994;2022-10-16T17:52:59;14.40;99.90
981;DHT22;479;53.514;9.994;2022-10-16T17:55:26;14.40;99.90
981;DHT22;479;53.514;9.994;2022-10-16T17:57:53;14.30;99.90
981;DHT22;479;53.514;9.994;2022-10-16T18:00:20;14.20;99.90
981;DHT22;479;53.514;9.994;2022-10-16T18:02:49;14.20;99.90
981;DHT22;479;53.514;9.994;2022-10-16T18:05:16;14.30;99.90
981;DHT22;479;53.514;9.994;2022-10-16T18:07:43;14.30;99.90
981;DHT22;479;53.514;9.994;2022-10-16T18:10:10;14.20;99.90
981;DHT22;479;53.514;9.994;2022-10-16T18:12:37;14.10;99.90
981;DHT22;479;53.514;9.994;2022-10-16T18:15:05;13.90;99.90
981;DHT22;479;53.514;9.994;2022-10-16T18:17:34;13.80;99.90
981;DHT22;479;53.514;9.994;2022-10-16T18:20:05;13.80;99.90
981;DHT22;479;53.514;9.994;2022-10-16T18:22:32;13.60;99.90
981;DHT22;479;53.514;9.994;2022-10-16T18:25:00;13.60;99.90
981;DHT22;479;53.514;9.994;2022-10-16T18:27:29;13.60;99.90
981;DHT22;479;53.514;9.994;2022-10-16T18:29:56;13.60;99.90
981;DHT22;479;53.514;9.994;2022-10-16T18:32:23;13.50;99.90
981;DHT22;479;53.514;9.994;2022-10-16T18:34:50;13.40;99.90
981;DHT22;479;53.514;9.994;2022-10-16T18:37:18;13.40;99.90
981;DHT22;479;53.514;9.994;2022-10-16T18:39:46;13.30;99.90
981;DHT22;479;53.514;9.994;2022-10-16T18:42:13;13.30;99.90
981;DHT22;479;53.514;9.994;2022-10-16T18:44:40;13.30;99.90
981;DHT22;479;53.514;9.994;2022-10-16T18:47:07;13.30;99.90
981;DHT22;479;53.514;9.994;2022-10-16T18:49:34;13.30;99.90
981;DHT22;479;53.514;9.994;2022-10-16T18:52:01;13.20;99.90
981;DHT22;479;53.514;9.994;2022-10-16T18:54:30;13.20;99.90
981;DHT22;479;53.514;9.994;2022-10-16T18:56:57;13.20;99.90
981;DHT22;479;53.514;9.994;2022-10-16T18:59:24;13.30;99.90
981;DHT22;479;53.514;9.994;2022-10-16T19:01:52;13.20;99.90
981;DHT22;479;53.514;9.994;2022-10-16T19:04:19;13.20;99.90
981;DHT22;479;53.514;9.994;2022-10-16T19:06:49;13.20;99.90
981;DHT22;479;53.514;9.994;2022-10-16T19:09:19;13.10;99.90
981;DHT22;479;53.514;9.994;2022-10-16T19:11:48;13.10;99.90
981;DHT22;479;53.514;9.994;2022-10-16T19:14:16;13.00;99.90
981;DHT22;479;53.514;9.994;2022-10-16T19:16:44;13.00;99.90
981;DHT22;479;53.514;9.994;2022-10-16T19:19:13;13.00;99.90